createdAt,value
2023-01-13T00:02:53.000Z,42.10
2023-01-13T00:06:01.061Z,42.20
2023-01-13T00:09:09.134Z,42.20
2023-01-13T00:12:16.928Z,42.20
2023-01-13T00:15:26.330Z,42.20
2023-01-13T00:18:34.507Z,42.20
2023-01-13T00:21:42.316Z,42.20
2023-01-13T00:24:50.391Z,42.20
2023-01-13T00:27:58.359Z,42.20
2023-01-13T00:31:08.690Z,42.20
2023-01-13T00:34:16.629Z,42.20
2023-01-13T00:37:24.716Z,42.30
2023-01-13T00:40:32.791Z,42.20
2023-01-13T00:43:40.093Z,42.20
2023-01-13T00:46:49.656Z,42.30
2023-01-13T00:49:57.472Z,42.30
2023-01-13T00:53:05.348Z,42.30
2023-01-13T00:56:16.654Z,42.40
2023-01-13T00:59:24.662Z,42.40
2023-01-13T01:02:33.963Z,42.40
2023-01-13T01:05:42.015Z,42.40
2023-01-13T01:08:49.985Z,42.40
2023-01-13T01:11:57.974Z,42.50
2023-01-13T01:15:09.292Z,42.50
2023-01-13T01:18:18.585Z,42.50
2023-01-13T01:21:27.557Z,42.50
2023-01-13T01:24:35.777Z,42.50
2023-01-13T01:27:43.919Z,42.50
2023-01-13T01:30:54.447Z,42.50
2023-01-13T01:34:03.730Z,42.60
2023-01-13T01:37:11.818Z,42.60
2023-01-13T01:40:20.096Z,42.50
2023-01-13T01:44:06.942Z,42.60
2023-01-13T01:47:17.195Z,43.20
2023-01-13T01:50:26.672Z,42.60
2023-01-13T01:53:34.547Z,42.60
2023-01-13T01:56:42.911Z,42.60
2023-01-13T01:59:50.708Z,42.60
2023-01-13T02:02:58.886Z,42.70
2023-01-13T02:06:08.464Z,42.70
2023-01-13T02:09:16.526Z,42.70
2023-01-13T02:12:30.261Z,42.70
2023-01-13T02:15:41.128Z,42.70
2023-01-13T02:18:54.691Z,42.70
2023-01-13T02:22:17.142Z,42.70
2023-01-13T02:25:48.742Z,42.70
2023-01-13T02:29:25.420Z,42.70
2023-01-13T02:32:36.897Z,42.70
2023-01-13T02:35:48.998Z,42.70
2023-01-13T02:38:58.634Z,42.80
2023-01-13T02:42:25.924Z,42.80
2023-01-13T02:45:35.259Z,42.80
2023-01-13T02:48:45.433Z,42.80
2023-01-13T02:51:54.255Z,42.80
2023-01-13T02:55:04.873Z,43.40
2023-01-13T02:58:14.482Z,42.80
2023-01-13T03:01:22.414Z,42.80
2023-01-13T03:04:51.402Z,42.80
2023-01-13T03:08:09.827Z,42.80
2023-01-13T03:11:18.514Z,42.80
2023-01-13T03:14:31.535Z,42.80
2023-01-13T03:17:41.695Z,42.80
2023-01-13T03:21:03.145Z,42.80
2023-01-13T03:24:14.343Z,42.80
2023-01-13T03:27:25.153Z,42.90
2023-01-13T03:30:34.679Z,42.80
2023-01-13T03:33:45.368Z,42.80
2023-01-13T03:36:55.472Z,42.80
2023-01-13T03:40:05.207Z,42.80
2023-01-13T03:43:33.176Z,42.80
2023-01-13T03:46:44.105Z,42.80
2023-01-13T03:49:54.619Z,42.80
2023-01-13T03:53:05.042Z,42.80
2023-01-13T03:56:15.581Z,42.80
2023-01-13T03:59:25.634Z,42.80
2023-01-13T04:02:41.875Z,42.80
2023-01-13T04:05:51.595Z,42.80
2023-01-13T04:09:04.281Z,42.80
2023-01-13T04:12:14.270Z,42.90
2023-01-13T04:15:23.643Z,42.80
2023-01-13T04:18:32.178Z,42.80
2023-01-13T04:21:40.078Z,42.80
2023-01-13T04:24:49.638Z,42.80
2023-01-13T04:27:57.863Z,42.80
2023-01-13T04:31:06.237Z,42.80
2023-01-13T04:34:14.146Z,42.80
2023-01-13T04:37:22.239Z,42.80
2023-01-13T04:40:31.503Z,42.70
2023-01-13T04:43:39.235Z,42.70
2023-01-13T04:46:47.485Z,42.80
2023-01-13T04:49:55.398Z,42.70
2023-01-13T04:53:03.424Z,42.70
2023-01-13T04:56:12.787Z,42.70
2023-01-13T04:59:20.789Z,42.70
2023-01-13T05:02:28.954Z,42.70
2023-01-13T05:05:37.861Z,42.60
2023-01-13T05:08:45.749Z,42.60
2023-01-13T05:12:12.689Z,42.60
2023-01-13T05:15:38.540Z,42.60
2023-01-13T05:18:46.231Z,42.60
2023-01-13T05:22:12.211Z,42.60
2023-01-13T05:25:22.862Z,42.60
2023-01-13T05:28:34.066Z,42.60
2023-01-13T05:31:41.993Z,42.60
2023-01-13T05:34:49.913Z,42.60
2023-01-13T05:37:58.008Z,42.60
2023-01-13T05:41:23.874Z,42.60
2023-01-13T05:44:33.196Z,42.50
2023-01-13T05:47:41.059Z,42.50
2023-01-13T05:50:49.931Z,42.50
2023-01-13T05:53:59.187Z,42.60
2023-01-13T05:57:07.207Z,42.50
2023-01-13T06:00:18.203Z,42.50
2023-01-13T06:03:26.427Z,42.50
2023-01-13T06:06:34.486Z,42.50
2023-01-13T06:09:42.532Z,42.50
2023-01-13T06:12:50.458Z,42.50
2023-01-13T06:16:00.242Z,42.40
2023-01-13T06:19:09.241Z,42.50
2023-01-13T06:22:18.946Z,42.40
2023-01-13T06:25:31.561Z,42.40
2023-01-13T06:28:39.716Z,42.40
2023-01-13T06:31:49.141Z,42.40
2023-01-13T06:34:59.050Z,42.40
2023-01-13T06:38:08.672Z,42.40
2023-01-13T06:41:16.857Z,42.40
2023-01-13T06:44:23.606Z,42.40
2023-01-13T06:47:33.108Z,42.40
2023-01-13T06:50:42.128Z,42.40
2023-01-13T06:53:50.219Z,42.40
2023-01-13T06:56:58.204Z,42.40
2023-01-13T07:00:07.499Z,42.40
2023-01-13T07:03:17.168Z,42.40
2023-01-13T07:06:25.483Z,42.40
2023-01-13T07:09:33.570Z,42.30
2023-01-13T07:12:55.905Z,42.40
2023-01-13T07:16:05.219Z,42.30
2023-01-13T07:19:15.667Z,42.40
2023-01-13T07:22:24.511Z,42.30
2023-01-13T07:25:32.739Z,42.30
2023-01-13T07:28:40.795Z,42.30
2023-01-13T07:31:50.111Z,42.30
2023-01-13T07:35:04.635Z,42.30
2023-01-13T07:38:12.763Z,42.30
2023-01-13T07:41:37.958Z,42.30
2023-01-13T07:44:45.812Z,42.30
2023-01-13T07:47:54.407Z,42.30
2023-01-13T07:51:04.499Z,42.30
2023-01-13T07:54:12.342Z,42.30
2023-01-13T07:57:20.504Z,42.30
2023-01-13T08:00:28.408Z,42.30
2023-01-13T08:03:36.263Z,42.30
2023-01-13T08:06:45.741Z,42.30
2023-01-13T08:09:53.869Z,42.30
2023-01-13T08:13:20.186Z,42.30
2023-01-13T08:16:28.248Z,42.30
2023-01-13T08:19:36.162Z,42.30
2023-01-13T08:22:45.653Z,42.30
2023-01-13T08:25:53.804Z,42.30
2023-01-13T08:29:01.992Z,42.30
2023-01-13T08:32:10.070Z,42.40
2023-01-13T08:35:18.447Z,42.30
2023-01-13T08:38:27.966Z,42.30
2023-01-13T08:41:53.031Z,42.30
2023-01-13T08:45:00.892Z,42.30
2023-01-13T08:48:09.659Z,42.30
2023-01-13T08:51:17.659Z,42.30
2023-01-13T08:54:26.995Z,42.30
2023-01-13T08:57:35.034Z,42.30
2023-01-13T09:00:44.171Z,42.30
2023-01-13T09:03:52.338Z,42.30
2023-01-13T09:07:02.238Z,42.30
2023-01-13T09:10:12.236Z,42.30
2023-01-13T09:13:21.744Z,42.30
2023-01-13T09:16:29.687Z,42.30
2023-01-13T09:19:37.740Z,42.30
2023-01-13T09:22:45.832Z,42.30
2023-01-13T09:25:55.335Z,42.30
2023-01-13T09:29:03.092Z,42.30
2023-01-13T09:32:12.853Z,42.30
2023-01-13T09:35:20.605Z,42.30
2023-01-13T09:38:28.677Z,42.50
2023-01-13T09:41:59.123Z,42.30
2023-01-13T09:45:08.088Z,42.30
2023-01-13T09:48:17.301Z,42.30
2023-01-13T09:51:28.563Z,42.30
2023-01-13T09:54:39.587Z,42.30
2023-01-13T09:57:48.952Z,42.30
2023-01-13T10:01:09.161Z,42.30
2023-01-13T10:04:17.504Z,42.30
2023-01-13T10:07:25.350Z,42.90
2023-01-13T10:10:37.844Z,42.30
2023-01-13T10:13:46.541Z,42.30
2023-01-13T10:16:59.969Z,42.30
2023-01-13T10:20:18.080Z,42.30
2023-01-13T10:23:44.184Z,42.30
2023-01-13T10:26:55.466Z,42.30
2023-01-13T10:30:17.042Z,42.20
2023-01-13T10:33:28.266Z,42.30
2023-01-13T10:36:36.267Z,42.20
2023-01-13T10:39:45.412Z,42.30
2023-01-13T10:43:06.579Z,42.50
2023-01-13T10:46:16.731Z,42.50
2023-01-13T10:49:28.846Z,42.50
2023-01-13T10:52:38.182Z,42.60
2023-01-13T10:55:51.954Z,42.50
2023-01-13T10:59:18.456Z,42.60
2023-01-13T11:02:29.595Z,42.60
2023-01-13T11:05:37.786Z,42.70
2023-01-13T11:08:47.174Z,42.70
2023-01-13T11:11:56.422Z,42.70
2023-01-13T11:15:08.603Z,43.00
2023-01-13T11:18:20.824Z,43.20
2023-01-13T11:21:29.931Z,43.30
2023-01-13T11:24:40.132Z,43.10
2023-01-13T11:27:52.482Z,43.50
2023-01-13T11:31:05.503Z,44.00
2023-01-13T11:34:15.252Z,44.90
2023-01-13T11:37:24.233Z,45.30
2023-01-13T11:40:35.886Z,45.10
2023-01-13T11:43:46.057Z,45.20
2023-01-13T11:46:54.074Z,45.10
2023-01-13T11:50:03.795Z,45.00
2023-01-13T11:53:19.294Z,45.20
2023-01-13T11:56:36.626Z,45.40
2023-01-13T11:59:58.183Z,45.30
2023-01-13T12:03:25.606Z,45.10
2023-01-13T12:06:36.277Z,45.00
2023-01-13T12:09:56.820Z,46.60
2023-01-13T12:13:08.160Z,46.40
2023-01-13T12:16:21.162Z,46.20
2023-01-13T12:19:30.148Z,46.40
2023-01-13T12:22:39.269Z,46.90
2023-01-13T12:25:50.507Z,47.00
2023-01-13T12:28:59.397Z,47.20
2023-01-13T12:32:08.053Z,47.90
2023-01-13T12:35:25.149Z,47.50
2023-01-13T12:38:36.630Z,47.10
2023-01-13T12:42:01.581Z,47.00
2023-01-13T12:45:22.532Z,46.60
2023-01-13T12:49:18.779Z,47.10
2023-01-13T12:52:26.985Z,47.10
2023-01-13T12:55:36.754Z,47.00
2023-01-13T12:58:44.969Z,46.80
2023-01-13T13:01:53.829Z,46.80
2023-01-13T13:05:23.891Z,45.90
2023-01-13T13:08:45.763Z,46.50
2023-01-13T13:12:12.293Z,46.50
2023-01-13T13:15:23.546Z,46.40
2023-01-13T13:18:31.517Z,46.10
2023-01-13T13:22:13.052Z,45.90
2023-01-13T13:25:23.257Z,45.80
2023-01-13T13:28:35.273Z,45.70
2023-01-13T13:31:55.026Z,45.50
2023-01-13T13:35:23.611Z,45.40
2023-01-13T13:38:59.623Z,45.30
2023-01-13T13:42:30.657Z,45.20
2023-01-13T13:45:57.749Z,45.10
2023-01-13T13:49:05.590Z,45.00
2023-01-13T13:52:19.009Z,44.90
2023-01-13T13:55:28.288Z,44.80
2023-01-13T13:58:37.181Z,44.70
2023-01-13T14:01:46.744Z,44.70
2023-01-13T14:05:08.054Z,44.60
2023-01-13T14:08:17.003Z,44.50
2023-01-13T14:11:27.545Z,44.50
2023-01-13T14:14:35.351Z,44.40
2023-01-13T14:17:45.108Z,44.40
2023-01-13T14:20:54.191Z,44.30
2023-01-13T14:24:05.623Z,44.20
2023-01-13T14:27:16.401Z,44.20
2023-01-13T14:30:24.595Z,44.10
2023-01-13T14:33:36.903Z,44.10
2023-01-13T14:36:47.941Z,44.00
2023-01-13T14:39:56.145Z,44.00
2023-01-13T14:43:04.421Z,44.00
2023-01-13T14:46:12.481Z,43.90
2023-01-13T14:49:25.031Z,43.90
2023-01-13T14:52:34.500Z,44.50
2023-01-13T14:55:42.589Z,43.80
2023-01-13T14:58:50.658Z,43.80
2023-01-13T15:01:58.899Z,43.70
2023-01-13T15:05:42.526Z,43.70
2023-01-13T15:08:51.147Z,43.70
2023-01-13T15:11:59.064Z,43.70
2023-01-13T15:15:08.444Z,43.60
2023-01-13T15:18:16.941Z,43.60
2023-01-13T15:21:26.497Z,43.50
2023-01-13T15:24:34.372Z,43.50
2023-01-13T15:27:42.347Z,43.50
2023-01-13T15:30:50.979Z,43.40
2023-01-13T15:34:00.432Z,43.40
2023-01-13T15:37:11.015Z,43.40
2023-01-13T15:40:20.548Z,43.30
2023-01-13T15:43:45.880Z,43.30
2023-01-13T15:46:53.782Z,43.30
2023-01-13T15:50:01.547Z,43.30
2023-01-13T15:53:14.349Z,43.30
2023-01-13T15:56:23.455Z,43.30
2023-01-13T15:59:31.359Z,43.30
2023-01-13T16:02:39.540Z,43.20
2023-01-13T16:05:47.507Z,43.30
2023-01-13T16:08:56.983Z,43.20
2023-01-13T16:12:05.152Z,43.10
2023-01-13T16:15:14.214Z,43.10
2023-01-13T16:18:24.205Z,43.10
2023-01-13T16:21:32.336Z,43.10
2023-01-13T16:24:41.718Z,43.10
2023-01-13T16:27:49.906Z,43.10
2023-01-13T16:30:57.673Z,43.10
2023-01-13T16:34:05.768Z,43.10
2023-01-13T16:37:18.697Z,43.10
2023-01-13T16:40:31.072Z,43.00
2023-01-13T16:43:39.082Z,43.00
2023-01-13T16:46:47.661Z,43.10
2023-01-13T16:49:55.623Z,43.00
2023-01-13T16:53:03.514Z,43.00
2023-01-13T16:56:20.631Z,43.00
2023-01-13T16:59:28.707Z,43.00
2023-01-13T17:02:36.672Z,43.00
2023-01-13T17:05:46.692Z,43.00
2023-01-13T17:08:54.433Z,43.00
2023-01-13T17:12:03.946Z,43.50
2023-01-13T17:15:13.418Z,43.00
2023-01-13T17:18:21.333Z,42.90
2023-01-13T17:21:29.470Z,42.90
2023-01-13T17:24:37.587Z,42.90
2023-01-13T17:27:47.108Z,42.90
2023-01-13T17:30:55.302Z,42.90
2023-01-13T17:34:03.656Z,42.90
2023-01-13T17:37:13.701Z,42.90
2023-01-13T17:40:21.766Z,42.80
2023-01-13T17:43:31.191Z,42.80
2023-01-13T17:46:40.319Z,42.80
2023-01-13T17:49:48.460Z,42.80
2023-01-13T17:52:56.623Z,42.80
2023-01-13T17:56:04.678Z,42.80
2023-01-13T17:59:14.409Z,42.80
2023-01-13T18:02:22.345Z,42.80
2023-01-13T18:05:30.488Z,42.80
2023-01-13T18:08:38.561Z,42.80
2023-01-13T18:11:47.370Z,42.80
2023-01-13T18:14:56.935Z,42.80
2023-01-13T18:18:05.148Z,42.70
2023-01-13T18:21:35.716Z,42.70
2023-01-13T18:25:03.090Z,42.70
2023-01-13T18:28:11.097Z,42.70
2023-01-13T18:31:20.339Z,42.70
2023-01-13T18:34:28.462Z,42.70
2023-01-13T18:37:38.493Z,42.70
2023-01-13T18:40:46.220Z,42.70
2023-01-13T18:43:53.175Z,42.70
2023-01-13T18:47:02.855Z,42.70
2023-01-13T18:50:13.665Z,42.70
2023-01-13T18:53:21.526Z,42.70
2023-01-13T18:56:31.041Z,42.60
2023-01-13T18:59:39.181Z,42.60
2023-01-13T19:02:50.552Z,42.60
2023-01-13T19:06:02.528Z,42.60
2023-01-13T19:09:11.067Z,42.60
2023-01-13T19:12:25.929Z,42.60
2023-01-13T19:15:33.887Z,42.60
2023-01-13T19:18:43.206Z,42.60
2023-01-13T19:21:51.314Z,42.60
2023-01-13T19:24:59.703Z,42.60
2023-01-13T19:28:07.671Z,42.60
2023-01-13T19:31:17.006Z,42.60
2023-01-13T19:34:26.305Z,42.60
2023-01-13T19:37:36.782Z,42.60
2023-01-13T19:40:44.687Z,42.60
2023-01-13T19:44:09.953Z,42.50
2023-01-13T19:47:17.847Z,42.50
2023-01-13T19:50:27.399Z,42.50
2023-01-13T19:53:35.792Z,42.50
2023-01-13T19:56:44.162Z,42.50
2023-01-13T19:59:53.222Z,42.60
2023-01-13T20:03:06.856Z,42.50
2023-01-13T20:06:16.372Z,42.50
2023-01-13T20:09:24.512Z,42.50
2023-01-13T20:12:32.581Z,42.50
2023-01-13T20:15:40.976Z,42.50
2023-01-13T20:18:50.447Z,42.50
2023-01-13T20:21:59.886Z,42.50
2023-01-13T20:25:08.251Z,42.50
2023-01-13T20:28:16.131Z,42.50
2023-01-13T20:31:24.403Z,42.50
2023-01-13T20:34:32.449Z,42.50
2023-01-13T20:37:42.229Z,42.50
2023-01-13T20:40:52.758Z,42.50
2023-01-13T20:44:00.620Z,42.50
2023-01-13T20:47:08.485Z,42.40
2023-01-13T20:50:16.818Z,42.50
2023-01-13T20:53:25.955Z,42.40
2023-01-13T20:56:34.201Z,42.50
2023-01-13T20:59:42.799Z,42.50
2023-01-13T21:02:50.716Z,42.40
2023-01-13T21:05:58.986Z,42.50
2023-01-13T21:09:08.860Z,43.00
2023-01-13T21:12:34.317Z,42.40
2023-01-13T21:15:46.806Z,42.40
2023-01-13T21:19:10.702Z,42.50
2023-01-13T21:22:18.574Z,42.50
2023-01-13T21:25:28.000Z,42.50
2023-01-13T21:28:36.987Z,42.40
2023-01-13T21:31:44.923Z,42.40
2023-01-13T21:34:52.878Z,42.50
2023-01-13T21:38:01.144Z,42.40
2023-01-13T21:41:14.146Z,42.40
2023-01-13T21:44:39.754Z,42.40
2023-01-13T21:47:50.659Z,42.40
2023-01-13T21:51:00.687Z,42.40
2023-01-13T21:54:08.689Z,42.40
2023-01-13T21:57:18.157Z,42.40
2023-01-13T22:00:26.968Z,42.40
2023-01-13T22:03:55.566Z,42.40
2023-01-13T22:07:06.416Z,42.40
2023-01-13T22:10:15.121Z,42.40
2023-01-13T22:13:42.247Z,42.40
2023-01-13T22:16:50.368Z,42.40
2023-01-13T22:19:58.487Z,42.40
2023-01-13T22:23:06.538Z,42.40
2023-01-13T22:26:14.345Z,42.40
2023-01-13T22:29:23.835Z,42.40
2023-01-13T22:32:32.114Z,42.40
2023-01-13T22:35:40.119Z,42.40
2023-01-13T22:38:48.206Z,42.40
2023-01-13T22:41:56.422Z,42.40
2023-01-13T22:45:07.152Z,42.40
2023-01-13T22:48:14.778Z,42.30
2023-01-13T22:51:23.052Z,42.40
2023-01-13T22:54:30.930Z,42.40
2023-01-13T22:57:47.652Z,42.30
2023-01-13T23:00:57.888Z,43.00
2023-01-13T23:04:06.205Z,42.30
2023-01-13T23:07:13.956Z,42.30
2023-01-13T23:10:22.081Z,42.30
2023-01-13T23:13:30.313Z,42.30
2023-01-13T23:16:40.580Z,42.40
2023-01-13T23:19:48.536Z,42.40
2023-01-13T23:22:56.597Z,42.40
2023-01-13T23:26:04.840Z,42.30
2023-01-13T23:29:13.256Z,42.30
2023-01-13T23:32:22.846Z,42.30
2023-01-13T23:35:31.911Z,42.30
2023-01-13T23:38:39.637Z,42.30
2023-01-13T23:41:47.628Z,42.30
2023-01-13T23:44:55.472Z,42.30
2023-01-13T23:48:05.038Z,42.30
2023-01-13T23:51:13.463Z,42.30
2023-01-13T23:54:21.475Z,42.30
2023-01-13T23:57:29.580Z,42.30
